Sidney, NE

2:54 PM MDT on September 30, 2016 (GMT -0600)
Sidney Municipal

Weather History for KSNY - March, 2014

Change the Weather History Date:

Saturday, March 1, 2014

  Actual Average Record
Temperature  
Mean Temperature 4 °F 35 °F  
Max Temperature 12 °F 49 °F 75 °F (2008)
Min Temperature -4 °F 22 °F -12 °F (1980)
Degree Days  
Heating Degree Days 61 30  
Month to date heating degree days 61 30  
Since 1 July heating degree days 5050 4612  
Cooling Degree Days 0 0  
Month to date cooling degree days 0 0  
Year to date cooling degree days 0 0  
Moisture  
Dew Point -1 °F    
Average Humidity 80    
Maximum Humidity 88    
Minimum Humidity 71    
Precipitation  
Precipitation T in 0.02 in 0.15 in (1980)
Month to date precipitation T 0.02  
Year to date precipitation 0.44 0.54  
Sea Level Pressure  
Sea Level Pressure 30.12 in    
Wind  
Wind Speed 17 mph (East)    
Max Wind Speed 23 mph    
Max Gust Speed 25 mph    
Visibility 2 miles    
Events Fog , Snow    
T = Trace of Precipitation, MM = Missing Value Source: NWS Daily Summary

Daily Weather History Graph

Daily Weather History Graph

Search for Another Location

Airport or City:

Trip Planner

Search our weather history database for the weather conditions in past years. The results will help you decide how hot, cold, wet, or windy it might be!

Date:

Astronomy

Mar. 01, 2014 Rise Set
Actual Time 6:26 AM MST 5:42 PM MST
Civil Twilight 5:58 AM MST 6:10 PM MST
Nautical Twilight 5:26 AM MST 6:42 PM MST
Astronomical Twilight 4:54 AM MST 7:14 PM MST
Moon 6:20 AM MST (3/1) 6:33 PM MST (3/1)
Length of Visible Light 12h 12m
Length of Day
11h 16m
New Moon, 0% of the Moon is Illuminated
Mar 1
New Moon
Mar 8
First Quarter
Mar 16
Full
Mar 23
Last Quarter
Mar 30
New

Hourly Weather History & Observations

Time (MST) Temp. Windchill Dew Point Humidity Pressure Visibility Wind Dir Wind Speed Gust Speed Precip Events Conditions
12:28 AM 10.0 °F -6.5 °F 6.1 °F 84% 29.95 in 7.0 mi East 15.0 mph - 0.00 in   Overcast
12:53 AM 10.0 °F -5.9 °F 6.1 °F 84% 30.12 in 5.0 mi East 13.8 mph - 0.00 in Snow Light Snow
1:06 AM 10.0 °F -7.1 °F 6.1 °F 84% 29.94 in 3.0 mi East 16.1 mph - 0.00 in Snow Light Snow
1:53 AM 9.0 °F -8.5 °F 5.0 °F 84% 30.09 in 3.0 mi East 16.1 mph - 0.00 in Snow Light Snow
2:08 AM 9.0 °F -7.3 °F 6.1 °F 88% 29.94 in 2.0 mi East 13.8 mph - 0.00 in Snow Light Snow
2:17 AM 9.0 °F -7.9 °F 6.1 °F 88% 29.94 in 1.8 mi East 15.0 mph - 0.00 in Snow Light Snow
2:44 AM 9.0 °F -8.5 °F 6.1 °F 88% 29.93 in 1.0 mi East 16.1 mph - 0.00 in Snow Light Snow
2:53 AM 9.0 °F -9.0 °F 5.0 °F 84% 30.09 in 1.2 mi East 17.3 mph - 0.00 in Snow Light Snow
3:15 AM 9.0 °F -7.9 °F 5.0 °F 84% 29.95 in 1.0 mi East 15.0 mph - 0.00 in Snow Light Snow
3:48 AM 8.6 °F -10.0 °F 5.0 °F 85% 29.92 in 0.8 mi East 18.4 mph - 0.00 in Snow Light Snow
3:49 AM 9.0 °F -9.5 °F 5.0 °F 84% 30.09 in 0.8 mi ESE 18.4 mph - 0.00 in Snow Light Snow
3:56 AM 9.0 °F -10.5 °F 5.0 °F 84% 29.92 in 0.8 mi East 20.7 mph - 0.00 in Snow Light Snow
4:33 AM 8.1 °F -9.0 °F 3.9 °F 83% 29.99 in 1.2 mi East 15.0 mph - 0.00 in Snow Light Snow
4:45 AM 8.1 °F -8.4 °F 3.9 °F 83% 29.98 in 0.8 mi East 13.8 mph - 0.00 in Snow Light Snow
4:53 AM 8.1 °F -10.2 °F 3.9 °F 83% 30.16 in 1.0 mi East 17.3 mph - 0.00 in Snow Light Snow
5:39 AM 8.1 °F -10.2 °F 3.0 °F 80% 29.99 in 0.8 mi East 17.3 mph - 0.00 in Snow Light Snow
5:48 AM 6.8 °F -13.4 °F 3.2 °F 85% 29.98 in 1.0 mi East 20.7 mph - 0.00 in Snow Light Snow
5:53 AM 7.0 °F -13.1 °F 3.0 °F 84% 30.17 in 0.8 mi East 20.7 mph - 0.00 in Snow Light Snow
6:19 AM 7.0 °F -11.6 °F 3.0 °F 84% 30.00 in 1.0 mi East 17.3 mph - 0.00 in Snow Light Snow
6:27 AM 7.0 °F -12.1 °F 3.0 °F 84% 29.99 in 0.8 mi East 18.4 mph - 0.00 in Snow Light Snow
6:53 AM 7.0 °F -11.6 °F 3.0 °F 84% 30.22 in 0.8 mi East 17.3 mph - 0.00 in Snow Light Snow
7:02 AM 7.0 °F -12.1 °F 3.0 °F 84% 30.00 in 0.8 mi East 18.4 mph - 0.00 in Snow Light Snow
7:11 AM 7.0 °F -13.6 °F 1.9 °F 80% 30.00 in 0.5 mi East 21.9 mph - 0.00 in Snow Snow
7:53 AM 6.1 °F -12.8 °F 1.9 °F 83% 30.25 in 0.5 mi East 17.3 mph - 0.00 in Fog , Snow Light Snow
8:15 AM 6.1 °F -14.3 °F 1.0 °F 80% 30.02 in 0.8 mi East 20.7 mph - 0.00 in Snow Light Snow
8:24 AM 5.0 °F -16.2 °F 1.0 °F 84% 30.04 in 0.5 mi ENE 21.9 mph - 0.00 in Fog , Snow Light Snow
8:36 AM 5.0 °F -15.7 °F -0.0 °F 80% 30.03 in 0.5 mi East 20.7 mph - 0.00 in Snow Snow
8:53 AM 5.0 °F -14.7 °F -0.0 °F 80% 30.28 in 0.8 mi ENE 18.4 mph - 0.00 in Snow Light Snow
9:02 AM 5.0 °F -12.3 °F -0.0 °F 80% 30.09 in 1.0 mi ENE 13.8 mph - 0.00 in Snow Light Snow
9:18 AM 5.0 °F -13.0 °F -0.0 °F 80% 30.08 in 1.2 mi ENE 15.0 mph - 0.00 in Snow Light Snow
9:40 AM 3.9 °F -16.6 °F -2.0 °F 76% 30.08 in 1.0 mi ENE 19.6 mph - 0.00 in Snow Light Snow
9:51 AM 3.2 °F -18.1 °F -2.2 °F 78% 30.07 in 1.5 mi East 20.7 mph - 0.00 in   Haze
9:53 AM 3.9 °F -16.1 °F -2.0 °F 76% 30.30 in 1.2 mi East 18.4 mph - 0.00 in   Haze
10:31 AM 3.0 °F -17.8 °F -2.0 °F 80% 30.07 in 2.5 mi East 19.6 mph - 0.00 in   Haze
10:53 AM 3.0 °F -17.3 °F -2.9 °F 76% 30.32 in 3.0 mi East 18.4 mph - 0.00 in   Haze
11:03 AM 3.0 °F -14.8 °F -2.9 °F 76% 30.11 in 2.5 mi East 13.8 mph - 0.00 in Snow Light Snow
11:17 AM 3.0 °F -17.3 °F -2.9 °F 76% 30.06 in 1.0 mi East 18.4 mph - 0.00 in Snow Light Snow
11:25 AM 3.0 °F -16.1 °F -2.0 °F 80% 30.07 in 0.8 mi East 16.1 mph - 0.00 in Snow Light Snow
11:35 AM 3.9 °F -15.0 °F -2.0 °F 76% 30.08 in 1.0 mi East 16.1 mph - 0.00 in Snow Light Snow
11:51 AM 3.2 °F -17.1 °F -2.2 °F 78% 30.03 in 0.8 mi East 18.4 mph - 0.00 in Snow Light Snow
11:53 AM 3.0 °F -17.3 °F -2.9 °F 76% 30.30 in 0.8 mi East 18.4 mph - 0.00 in Snow Light Snow
11:59 AM 3.0 °F -17.3 °F -2.9 °F 76% 30.07 in 1.2 mi East 18.4 mph - 0.00 in   Overcast
12:15 PM 3.0 °F -18.3 °F -2.9 °F 76% 30.05 in 1.0 mi East 20.7 mph - 0.00 in   Overcast
12:33 PM 3.0 °F -16.7 °F -2.9 °F 76% 30.07 in 1.5 mi East 17.3 mph - 0.00 in   Overcast
12:45 PM 3.0 °F -16.1 °F -4.0 °F 73% 30.08 in 2.0 mi East 16.1 mph - 0.00 in   Haze
12:53 PM 3.0 °F -15.5 °F -4.0 °F 73% 30.33 in 1.8 mi East 15.0 mph - 0.00 in Snow Light Snow
1:23 PM 1.9 °F -17.5 °F -4.0 °F 76% 30.08 in 2.0 mi East 16.1 mph - 0.00 in   Haze
1:40 PM 3.0 °F -14.8 °F -4.0 °F 73% 30.08 in 3.0 mi East 13.8 mph - 0.00 in   Haze
1:49 PM 1.4 °F -18.8 °F -4.0 °F 78% 30.08 in 2.0 mi ENE 17.3 mph - 0.00 in Snow Light Snow
1:53 PM 1.9 °F -17.5 °F -4.0 °F 76% 30.32 in 2.5 mi East 16.1 mph - 0.00 in Snow Light Snow
2:11 PM 1.9 °F -19.2 °F -5.1 °F 72% 30.06 in 1.5 mi ENE 19.6 mph - 0.00 in   Haze
2:25 PM 1.9 °F -18.7 °F -4.0 °F 76% 30.06 in 2.0 mi East 18.4 mph - 0.00 in   Haze
2:36 PM 1.9 °F -18.1 °F -4.0 °F 76% 30.06 in 1.8 mi East 17.3 mph - 0.00 in   Haze
2:44 PM 1.9 °F -18.1 °F -5.1 °F 72% 30.07 in 3.0 mi East 17.3 mph - 0.00 in   Haze
2:53 PM 1.9 °F -18.1 °F -5.1 °F 72% 30.31 in 5.0 mi East 17.3 mph - 0.00 in   Haze
3:33 PM 1.0 °F -19.3 °F -5.1 °F 75% 30.06 in 2.5 mi East 17.3 mph - N/A   Haze
3:53 PM 1.0 °F -19.3 °F -5.1 °F 75% 30.32 in 2.5 mi East 17.3 mph - N/A   Haze
4:06 PM -0.0 °F -20.7 °F -6.0 °F 76% 30.06 in 3.0 mi East 17.3 mph - N/A   Haze
4:20 PM -0.0 °F -19.4 °F -6.0 °F 76% 30.07 in 2.5 mi East 15.0 mph - N/A   Haze
4:34 PM -0.0 °F -20.1 °F -7.1 °F 72% 30.07 in 3.0 mi East 16.1 mph - N/A   Haze
4:53 PM -0.0 °F -20.1 °F -6.0 °F 76% 30.35 in 4.0 mi East 16.1 mph - N/A   Haze
5:53 PM -0.9 °F -20.6 °F -7.1 °F 75% 30.39 in 2.5 mi East 15.0 mph - N/A   Haze
6:02 PM -0.9 °F -20.6 °F -7.1 °F 75% 30.12 in 4.0 mi East 15.0 mph - N/A   Haze
6:53 PM -2.0 °F -22.6 °F -8.0 °F 76% 30.41 in 7.0 mi East 16.1 mph - N/A   Overcast
7:53 PM -2.0 °F -21.9 °F -8.0 °F 76% 30.44 in 5.0 mi East 15.0 mph - N/A   Haze
8:53 PM -2.9 °F -23.1 °F -9.0 °F 75% 30.44 in 5.0 mi East 15.0 mph - N/A   Haze
9:12 PM -2.9 °F -23.1 °F -9.0 °F 75% 30.15 in 6.0 mi ESE 15.0 mph - N/A   Haze
9:53 PM -2.9 °F -22.4 °F -9.0 °F 75% 30.45 in 7.0 mi ESE 13.8 mph - N/A   Overcast
10:53 PM -4.0 °F -23.0 °F -9.0 °F 79% 30.46 in 6.0 mi ESE 12.7 mph - N/A   Haze
11:53 PM -4.0 °F -22.1 °F -9.0 °F 79% 30.46 in 3.0 mi ESE 11.5 mph - N/A   Haze